createdAt,value
2022-09-23T00:04:04.811Z,100589.20
2022-09-23T00:09:07.120Z,100589.30
2022-09-23T00:14:10.162Z,100588.17
2022-09-23T00:19:12.501Z,100582.17
2022-09-23T00:24:15.722Z,100578.10
2022-09-23T00:29:18.012Z,100578.48
2022-09-23T00:34:20.534Z,100574.55
2022-09-23T00:39:23.813Z,100572.94
2022-09-23T00:44:29.062Z,100570.50
2022-09-23T00:49:31.395Z,100570.80
2022-09-23T00:54:33.963Z,100569.59
2022-09-23T00:59:36.815Z,100572.48
2022-09-23T01:04:39.809Z,100573.10
2022-09-23T01:09:42.557Z,100571.85
2022-09-23T01:14:52.767Z,100568.15
2022-09-23T01:20:03.230Z,100568.42
2022-09-23T01:25:16.643Z,100561.46
2022-09-23T01:30:21.866Z,100556.97
2022-09-23T01:35:25.120Z,100556.84
2022-09-23T01:40:33.961Z,100558.13
2022-09-23T01:45:43.366Z,100558.30
2022-09-23T01:50:54.146Z,100561.59
2022-09-23T01:56:00.247Z,100559.79
2022-09-23T02:01:04.951Z,100555.62
2022-09-23T02:06:11.169Z,100553.53
2022-09-23T02:11:18.034Z,100558.52
2022-09-23T02:16:21.705Z,100555.10
2022-09-23T02:21:27.391Z,100554.36
2022-09-23T02:26:33.738Z,100556.52
2022-09-23T02:31:39.414Z,100553.98
2022-09-23T02:36:49.526Z,100547.27
2022-09-23T02:41:58.921Z,100551.30
2022-09-23T02:47:01.482Z,100546.85
2022-09-23T02:52:05.488Z,100551.24
2022-09-23T02:57:08.206Z,100546.32
2022-09-23T03:02:14.570Z,100539.81
2022-09-23T03:07:17.942Z,100539.30
2022-09-23T03:12:31.712Z,100537.41
2022-09-23T03:17:38.034Z,100537.63
2022-09-23T03:22:44.873Z,100533.70
2022-09-23T03:27:47.203Z,100533.90
2022-09-23T03:32:51.233Z,100531.70
2022-09-23T03:37:56.644Z,100527.77
2022-09-23T03:43:00.282Z,100529.73
2022-09-23T03:48:02.929Z,100528.52
2022-09-23T03:53:05.285Z,100529.00
2022-09-23T03:58:08.158Z,100530.86
2022-09-23T04:03:11.944Z,100525.23
2022-09-23T04:08:14.453Z,100521.69
2022-09-23T04:13:17.080Z,100521.05
2022-09-23T04:18:19.590Z,100518.23
2022-09-23T04:23:21.932Z,100516.39
2022-09-23T04:28:24.389Z,100517.54
2022-09-23T04:33:26.752Z,100515.86
2022-09-23T04:38:29.962Z,100518.27
2022-09-23T04:43:32.323Z,100520.44
2022-09-23T04:48:36.940Z,100504.23
2022-09-23T04:53:40.295Z,100506.77
2022-09-23T04:58:43.316Z,100505.30
2022-09-23T05:03:46.281Z,100503.05
2022-09-23T05:08:50.236Z,100504.38
2022-09-23T05:13:53.529Z,100505.39
2022-09-23T05:18:56.224Z,100507.18
2022-09-23T05:24:00.533Z,100510.52
2022-09-23T05:29:03.064Z,100504.65
2022-09-23T05:34:05.882Z,100506.82
2022-09-23T05:39:08.824Z,100511.50
2022-09-23T05:44:11.464Z,100527.29
2022-09-23T05:49:13.855Z,100526.42
2022-09-23T05:54:16.397Z,100525.46
2022-09-23T05:59:19.018Z,100521.79
2022-09-23T06:04:21.414Z,100525.71
2022-09-23T06:09:23.809Z,100528.48
2022-09-23T06:14:26.210Z,100526.30
2022-09-23T06:19:28.683Z,100526.58
2022-09-23T06:24:31.910Z,100521.75
2022-09-23T06:29:34.405Z,100521.67
2022-09-23T06:34:47.822Z,100524.25
2022-09-23T06:39:54.709Z,100530.55
2022-09-23T06:44:57.198Z,100535.25
2022-09-23T06:49:59.735Z,100537.79
2022-09-23T06:55:02.279Z,100529.75
2022-09-23T07:00:05.440Z,100528.15
2022-09-23T07:05:09.436Z,100527.73
2022-09-23T07:10:11.953Z,100527.98
2022-09-23T07:15:16.108Z,100531.73
2022-09-23T07:20:18.673Z,100534.25
2022-09-23T07:25:21.227Z,100537.81
2022-09-23T07:30:25.502Z,100534.42
2022-09-23T07:35:28.266Z,100527.52
2022-09-23T07:40:30.854Z,100523.00
2022-09-23T07:45:34.142Z,100523.63
2022-09-23T07:50:38.533Z,100521.99
2022-09-23T07:55:59.393Z,100525.12
2022-09-23T08:01:10.424Z,100522.23
2022-09-23T08:06:13.773Z,100525.02
2022-09-23T08:11:16.291Z,100520.42
2022-09-23T08:16:19.246Z,100523.79
2022-09-23T08:21:22.491Z,100519.05
2022-09-23T08:26:25.079Z,100514.33
2022-09-23T08:31:27.659Z,100519.19
2022-09-23T08:36:31.157Z,100516.69
2022-09-23T08:41:36.554Z,100516.47
2022-09-23T08:46:42.211Z,100516.56
2022-09-23T08:51:46.454Z,100515.79
2022-09-23T08:56:51.319Z,100512.09
2022-09-23T09:01:58.042Z,100513.89
2022-09-23T09:12:33.235Z,100506.98
2022-09-23T09:17:38.306Z,100506.63
2022-09-23T09:22:43.712Z,100507.00
2022-09-23T09:27:47.517Z,100496.02
2022-09-23T09:32:52.939Z,100487.17
2022-09-23T09:37:55.884Z,100474.51
2022-09-23T09:42:58.422Z,100477.27
2022-09-23T09:48:06.406Z,100489.14
2022-09-23T09:53:11.736Z,100487.45
2022-09-23T09:58:16.411Z,100486.20
2022-09-23T10:03:24.303Z,100493.27
2022-09-23T10:08:31.784Z,100487.55
2022-09-23T10:13:34.269Z,100484.88
2022-09-23T10:18:37.432Z,100478.79
2022-09-23T10:23:41.764Z,100472.64
2022-09-23T10:28:47.001Z,100462.11
2022-09-23T10:33:50.686Z,100456.39
2022-09-23T10:39:16.597Z,100456.02
2022-09-23T10:44:29.689Z,100455.44
2022-09-23T10:49:35.560Z,100455.02
2022-09-23T10:54:40.929Z,100448.14
2022-09-23T10:59:51.615Z,100445.33
2022-09-23T11:11:34.073Z,100445.83
2022-09-23T11:16:39.153Z,100446.41
2022-09-23T11:21:44.673Z,100448.63
2022-09-23T11:26:55.537Z,100443.96
2022-09-23T11:32:01.072Z,100437.95
2022-09-23T11:37:07.160Z,100437.64
2022-09-23T11:42:14.584Z,100428.31
2022-09-23T11:47:21.755Z,100428.27
2022-09-23T11:52:24.216Z,100429.83
2022-09-23T11:57:49.492Z,100430.80
2022-09-23T12:03:04.548Z,100433.59
2022-09-23T12:08:10.793Z,100424.27
2022-09-23T12:13:19.314Z,100422.54
2022-09-23T12:18:35.823Z,100417.98
2022-09-23T12:23:38.270Z,100416.91
2022-09-23T12:28:44.435Z,100406.15
2022-09-23T12:33:50.230Z,100406.50
2022-09-23T12:38:56.060Z,100401.63
2022-09-23T12:44:01.521Z,100403.92
2022-09-23T12:49:05.201Z,100403.47
2022-09-23T12:54:10.665Z,100398.01
2022-09-23T12:59:16.051Z,100401.01
2022-09-23T13:04:24.348Z,100403.89
2022-09-23T13:09:29.034Z,100399.08
2022-09-23T13:14:32.728Z,100392.95
2022-09-23T13:19:38.666Z,100393.34
2022-09-23T13:24:43.179Z,100386.36
2022-09-23T13:30:06.001Z,100383.52
2022-09-23T13:35:11.498Z,100379.91
2022-09-23T13:40:17.412Z,100368.04
2022-09-23T13:45:21.842Z,100365.84
2022-09-23T13:50:24.706Z,100368.90
2022-09-23T13:55:31.072Z,100361.56
2022-09-23T14:00:35.837Z,100359.96
2022-09-23T14:05:38.449Z,100351.84
2022-09-23T14:10:44.967Z,100350.72
2022-09-23T14:15:48.551Z,100340.61
2022-09-23T14:20:51.025Z,100333.69
2022-09-23T14:25:54.372Z,100331.00
2022-09-23T14:30:58.385Z,100323.95
2022-09-23T14:36:06.623Z,100314.91
2022-09-23T14:41:21.764Z,100312.50
2022-09-23T14:46:26.085Z,100308.60
2022-09-23T14:51:31.470Z,100304.75
2022-09-23T14:56:41.241Z,100304.01
2022-09-23T15:01:43.850Z,100299.88
2022-09-23T15:06:49.810Z,100295.69
2022-09-23T15:11:54.061Z,100295.27
2022-09-23T15:16:56.846Z,100299.91
2022-09-23T15:21:59.942Z,100294.61
2022-09-23T15:27:02.567Z,100289.80
2022-09-23T15:32:08.524Z,100290.69
2022-09-23T15:37:12.579Z,100292.73
2022-09-23T15:42:15.018Z,100290.21
2022-09-23T15:47:18.620Z,100279.55
2022-09-23T15:52:22.761Z,100277.38
2022-09-23T15:57:25.984Z,100270.65
2022-09-23T16:02:28.911Z,100273.17
2022-09-23T16:07:31.484Z,100271.87
2022-09-23T16:12:33.989Z,100271.51
2022-09-23T16:17:36.619Z,100268.08
2022-09-23T16:22:39.191Z,100266.45
2022-09-23T16:27:41.657Z,100259.56
2022-09-23T16:32:44.185Z,100263.64
2022-09-23T16:37:49.668Z,100260.65
2022-09-23T16:42:54.171Z,100260.20
2022-09-23T16:47:56.860Z,100264.30
2022-09-23T16:52:59.363Z,100263.48
2022-09-23T16:58:01.849Z,100257.52
2022-09-23T17:03:07.795Z,100255.61
2022-09-23T17:08:13.237Z,100252.17
2022-09-23T17:13:16.625Z,100253.64
2022-09-23T17:18:20.637Z,100246.84
2022-09-23T17:23:23.089Z,100241.98
2022-09-23T17:28:25.722Z,100242.67
2022-09-23T17:33:29.571Z,100243.91
2022-09-23T17:38:33.040Z,100245.39
2022-09-23T17:43:36.160Z,100243.90
2022-09-23T17:48:41.270Z,100242.89
2022-09-23T17:53:45.302Z,100245.60
2022-09-23T17:58:48.825Z,100246.98
2022-09-23T18:03:54.590Z,100248.73
2022-09-23T18:08:58.500Z,100242.95
2022-09-23T18:14:03.171Z,100245.00
2022-09-23T18:19:06.251Z,100245.81
2022-09-23T18:24:31.349Z,100246.17
2022-09-23T18:29:32.913Z,100245.67
2022-09-23T18:34:35.390Z,100250.63
2022-09-23T18:39:38.146Z,100248.19
2022-09-23T18:44:40.688Z,100249.83
2022-09-23T18:49:46.209Z,100247.40
2022-09-23T18:54:52.984Z,100243.98
2022-09-23T18:59:57.455Z,100244.80
2022-09-23T19:04:59.918Z,100243.42
2022-09-23T19:10:02.428Z,100244.60
2022-09-23T19:15:05.570Z,100240.65
2022-09-23T19:20:08.397Z,100243.71
2022-09-23T19:25:11.142Z,100246.33
2022-09-23T19:30:13.639Z,100246.46
2022-09-23T19:35:16.143Z,100245.98
2022-09-23T19:40:19.487Z,100251.48
2022-09-23T19:45:22.540Z,100256.71
2022-09-23T19:50:25.087Z,100254.54
2022-09-23T19:55:28.385Z,100254.16
2022-09-23T20:00:31.489Z,100249.44
2022-09-23T20:05:33.977Z,100247.59
2022-09-23T20:10:38.120Z,100238.59
2022-09-23T20:15:40.620Z,100234.94
2022-09-23T20:20:43.254Z,100221.30
2022-09-23T20:25:57.367Z,100217.47
2022-09-23T20:30:59.963Z,100218.02
2022-09-23T20:36:02.651Z,100219.05
2022-09-23T20:41:06.272Z,100220.48
2022-09-23T20:46:09.070Z,100216.95
2022-09-23T20:51:11.727Z,100218.77
2022-09-23T20:56:15.401Z,100220.25
2022-09-23T21:01:18.981Z,100218.87
2022-09-23T21:06:25.082Z,100219.99
2022-09-23T21:11:29.086Z,100219.77
2022-09-23T21:16:31.720Z,100223.41
2022-09-23T21:21:34.663Z,100225.14
2022-09-23T21:26:37.276Z,100225.52
2022-09-23T21:31:40.038Z,100219.77
2022-09-23T21:36:44.093Z,100219.86
2022-09-23T21:41:46.655Z,100216.06
2022-09-23T21:46:49.202Z,100212.17
2022-09-23T21:51:55.087Z,100212.77
2022-09-23T21:56:57.620Z,100212.44
2022-09-23T22:02:00.143Z,100218.19
2022-09-23T22:07:03.272Z,100216.14
2022-09-23T22:12:07.716Z,100216.65
2022-09-23T22:17:12.237Z,100214.88
2022-09-23T22:22:15.634Z,100215.17
2022-09-23T22:27:18.984Z,100211.83
2022-09-23T22:32:24.567Z,100213.29
2022-09-23T22:37:28.436Z,100215.02
2022-09-23T22:42:30.911Z,100215.48
2022-09-23T22:47:37.035Z,100212.19
2022-09-23T22:52:40.386Z,100206.08
2022-09-23T22:57:42.906Z,100208.34
2022-09-23T23:02:45.417Z,100206.54
2022-09-23T23:07:48.020Z,100201.04
2022-09-23T23:12:52.181Z,100195.91
2022-09-23T23:17:59.184Z,100200.27
2022-09-23T23:23:02.383Z,100191.52
2022-09-23T23:28:05.885Z,100188.89
2022-09-23T23:33:08.459Z,100189.47
2022-09-23T23:38:11.220Z,100191.97
2022-09-23T23:43:14.810Z,100195.08
2022-09-23T23:48:18.368Z,100191.16
2022-09-23T23:53:21.750Z,100189.80
2022-09-23T23:58:24.264Z,100188.29
